createdAt,value
2016-09-29T00:00:59.593Z,0
2016-09-29T00:01:58.653Z,0
2016-09-29T00:02:58.563Z,0
2016-09-29T00:03:57.963Z,0
2016-09-29T00:04:59.465Z,0
2016-09-29T00:05:59.677Z,0
2016-09-29T00:06:58.806Z,0
2016-09-29T00:07:58.160Z,0
2016-09-29T00:08:59.335Z,0
2016-09-29T00:09:58.420Z,0
2016-09-29T00:10:59.582Z,0
2016-09-29T00:11:57.786Z,0
2016-09-29T00:12:58.318Z,0
2016-09-29T00:13:58.866Z,0
2016-09-29T00:14:58.758Z,0
2016-09-29T00:15:57.935Z,0
2016-09-29T00:16:58.132Z,0
2016-09-29T00:17:58.842Z,0
2016-09-29T00:18:57.759Z,0
2016-09-29T00:19:58.177Z,0
2016-09-29T00:20:58.917Z,0
2016-09-29T00:21:58.041Z,0
2016-09-29T00:22:58.496Z,0
2016-09-29T00:23:58.341Z,0
2016-09-29T00:24:59.763Z,0
2016-09-29T00:25:58.804Z,0
2016-09-29T00:26:58.724Z,0
2016-09-29T00:27:59.043Z,0
2016-09-29T00:28:59.807Z,0
2016-09-29T00:29:59.097Z,0
2016-09-29T00:30:58.196Z,0
2016-09-29T00:31:59.166Z,0
2016-09-29T00:32:59.151Z,0
2016-09-29T00:33:58.300Z,0
2016-09-29T00:34:59.768Z,0
2016-09-29T00:35:59.084Z,0
2016-09-29T00:36:58.322Z,0
2016-09-29T00:37:58.872Z,0
2016-09-29T00:39:00.260Z,0
2016-09-29T00:39:58.582Z,0
2016-09-29T00:40:59.130Z,0
2016-09-29T00:41:58.953Z,0
2016-09-29T00:43:00.122Z,0
2016-09-29T00:43:58.723Z,0
2016-09-29T00:44:59.519Z,0
2016-09-29T00:45:59.501Z,0
2016-09-29T00:47:00.874Z,0
2016-09-29T00:47:59.197Z,0
2016-09-29T00:48:59.582Z,0
2016-09-29T00:49:58.690Z,0
2016-09-29T00:51:00.501Z,0
2016-09-29T00:51:59.055Z,0
2016-09-29T00:52:59.254Z,0
2016-09-29T00:54:01.686Z,0
2016-09-29T00:54:59.354Z,0
2016-09-29T00:55:59.137Z,0
2016-09-29T00:56:58.897Z,0
2016-09-29T00:58:01.035Z,0
2016-09-29T00:58:58.050Z,0
2016-09-29T00:59:59.371Z,0
2016-09-29T01:00:58.847Z,0
2016-09-29T01:02:00.653Z,0
2016-09-29T01:02:59.608Z,0
2016-09-29T01:03:59.341Z,0
2016-09-29T01:05:00.485Z,0
2016-09-29T01:06:01.007Z,0
2016-09-29T01:06:58.830Z,0
2016-09-29T01:07:59.272Z,0
2016-09-29T01:09:00.773Z,0
2016-09-29T01:10:00.369Z,0
2016-09-29T01:11:00.860Z,0
2016-09-29T01:11:59.258Z,0
2016-09-29T01:13:00.108Z,0
2016-09-29T01:14:00.339Z,0
2016-09-29T01:15:00.674Z,0
2016-09-29T01:16:00.383Z,0
2016-09-29T01:16:59.074Z,0
2016-09-29T01:18:00.239Z,0
2016-09-29T01:18:58.771Z,0
2016-09-29T01:20:00.667Z,0
2016-09-29T01:21:00.758Z,0
2016-09-29T01:22:00.500Z,0
2016-09-29T01:22:59.812Z,0
2016-09-29T01:24:01.407Z,0
2016-09-29T01:25:00.280Z,0
2016-09-29T01:26:00.569Z,0
2016-09-29T01:27:00.379Z,0
2016-09-29T01:28:00.777Z,0
2016-09-29T01:29:00.942Z,0
2016-09-29T01:30:01.741Z,0
2016-09-29T01:31:00.462Z,0
2016-09-29T01:31:59.511Z,0
2016-09-29T01:33:01.202Z,0
2016-09-29T01:34:01.291Z,0
2016-09-29T01:35:01.131Z,0
2016-09-29T01:36:00.488Z,0
2016-09-29T01:37:01.297Z,0
2016-09-29T01:38:01.091Z,0
2016-09-29T01:39:01.180Z,0
2016-09-29T01:39:59.470Z,0
2016-09-29T01:41:01.703Z,0
2016-09-29T01:42:00.943Z,0
2016-09-29T01:43:00.582Z,0
2016-09-29T01:44:02.187Z,0
2016-09-29T01:45:00.907Z,0
2016-09-29T01:46:02.380Z,0
2016-09-29T01:47:00.378Z,0
2016-09-29T01:48:00.648Z,0
2016-09-29T01:49:01.469Z,0
2016-09-29T01:50:00.856Z,0
2016-09-29T01:51:01.526Z,0
2016-09-29T01:52:00.677Z,0
2016-09-29T01:53:01.846Z,0
2016-09-29T01:54:01.040Z,0
2016-09-29T01:55:01.277Z,0
2016-09-29T01:56:01.095Z,0
2016-09-29T01:57:01.410Z,0
2016-09-29T01:58:02.031Z,0
2016-09-29T01:59:01.485Z,0
2016-09-29T02:00:01.522Z,0
2016-09-29T02:01:01.484Z,0
2016-09-29T02:02:02.311Z,0
2016-09-29T02:03:01.340Z,0
2016-09-29T02:04:02.674Z,0
2016-09-29T02:05:00.896Z,0
2016-09-29T02:06:01.906Z,0
2016-09-29T02:07:01.135Z,0
2016-09-29T02:08:02.140Z,0
2016-09-29T02:09:01.759Z,0
2016-09-29T02:10:02.021Z,0
2016-09-29T02:11:00.880Z,0
2016-09-29T02:12:00.479Z,0
2016-09-29T02:13:01.447Z,0
2016-09-29T02:14:01.600Z,0
2016-09-29T02:15:02.097Z,0
2016-09-29T02:16:01.492Z,0
2016-09-29T02:17:02.095Z,0
2016-09-29T02:18:02.114Z,0
2016-09-29T02:19:01.800Z,0
2016-09-29T02:20:01.573Z,0
2016-09-29T02:21:01.194Z,0
2016-09-29T02:22:02.241Z,0
2016-09-29T02:23:03.222Z,0
2016-09-29T02:24:01.917Z,0
2016-09-29T02:25:01.705Z,0
2016-09-29T02:26:01.102Z,0
2016-09-29T02:27:00.846Z,0
2016-09-29T02:28:03.480Z,0
2016-09-29T02:29:01.520Z,0
2016-09-29T02:30:01.011Z,0
2016-09-29T02:31:01.865Z,0
2016-09-29T02:32:03.168Z,0
2016-09-29T02:33:01.752Z,0
2016-09-29T02:34:01.771Z,0
2016-09-29T02:35:00.885Z,0
2016-09-29T02:36:02.407Z,0
2016-09-29T02:37:01.402Z,0
2016-09-29T02:38:00.988Z,0
2016-09-29T02:39:00.841Z,0
2016-09-29T02:40:00.522Z,0
2016-09-29T02:41:01.544Z,0
2016-09-29T02:42:00.815Z,0
2016-09-29T02:43:01.906Z,0
2016-09-29T02:44:00.902Z,0
2016-09-29T02:45:01.861Z,0
2016-09-29T02:46:01.677Z,0
2016-09-29T02:47:01.459Z,0
2016-09-29T02:48:02.144Z,0
2016-09-29T02:49:02.926Z,0
2016-09-29T02:50:02.819Z,0
2016-09-29T02:51:01.510Z,0
2016-09-29T02:52:02.406Z,0
2016-09-29T02:53:01.644Z,0
2016-09-29T02:54:03.255Z,0
2016-09-29T02:55:03.246Z,0
2016-09-29T02:56:03.397Z,0
2016-09-29T02:57:01.184Z,0
2016-09-29T02:58:01.572Z,0
2016-09-29T02:59:03.057Z,0
2016-09-29T03:00:01.531Z,0
2016-09-29T03:01:02.123Z,0
2016-09-29T03:02:03.127Z,0
2016-09-29T03:03:02.669Z,0
2016-09-29T03:04:01.782Z,0
2016-09-29T03:05:02.210Z,0
2016-09-29T03:06:03.109Z,0
2016-09-29T03:07:02.418Z,0
2016-09-29T03:08:01.703Z,0
2016-09-29T03:09:01.695Z,0
2016-09-29T03:10:01.996Z,0
2016-09-29T03:11:03.205Z,0
2016-09-29T03:12:02.414Z,0
2016-09-29T03:13:03.407Z,0
2016-09-29T03:14:02.993Z,0
2016-09-29T03:15:02.395Z,0
2016-09-29T03:16:01.945Z,0
2016-09-29T03:17:03.540Z,0
2016-09-29T03:18:03.373Z,0
2016-09-29T03:19:02.281Z,0
2016-09-29T03:20:02.809Z,0
2016-09-29T03:21:02.451Z,0
2016-09-29T03:22:03.430Z,0
2016-09-29T03:23:04.066Z,0
2016-09-29T03:24:01.969Z,0
2016-09-29T03:25:03.528Z,0
2016-09-29T03:26:03.016Z,0
2016-09-29T03:27:03.637Z,0
2016-09-29T03:28:03.588Z,0
2016-09-29T03:29:04.471Z,0
2016-09-29T03:30:03.168Z,0
2016-09-29T03:31:04.063Z,0
2016-09-29T03:32:04.351Z,0
2016-09-29T03:33:02.388Z,0
2016-09-29T03:34:05.170Z,0
2016-09-29T03:35:03.158Z,0
2016-09-29T03:36:04.051Z,0
2016-09-29T03:37:03.934Z,0
2016-09-29T03:38:05.464Z,0
2016-09-29T03:39:03.598Z,0
2016-09-29T03:40:03.922Z,0
2016-09-29T03:41:04.240Z,0
2016-09-29T03:42:03.665Z,0
2016-09-29T03:43:03.190Z,0
2016-09-29T03:44:02.342Z,0
2016-09-29T03:45:03.339Z,0
2016-09-29T03:46:03.025Z,0
2016-09-29T03:47:02.666Z,0
2016-09-29T03:48:03.359Z,0
2016-09-29T03:49:04.137Z,0
2016-09-29T03:50:05.579Z,0
2016-09-29T03:51:04.185Z,0
2016-09-29T03:52:03.292Z,0
2016-09-29T03:53:02.515Z,0
2016-09-29T03:54:02.868Z,0
2016-09-29T03:55:03.250Z,0
2016-09-29T03:56:04.041Z,0
2016-09-29T03:57:03.794Z,0
2016-09-29T03:58:04.785Z,0
2016-09-29T03:59:04.195Z,0
2016-09-29T04:00:03.750Z,0
2016-09-29T04:01:04.230Z,0
2016-09-29T04:02:04.625Z,0
2016-09-29T04:03:03.919Z,0
2016-09-29T04:04:02.615Z,0
2016-09-29T04:05:03.319Z,0
2016-09-29T04:06:04.326Z,0
2016-09-29T04:07:05.812Z,0
2016-09-29T04:08:03.302Z,0
2016-09-29T04:09:03.378Z,0
2016-09-29T04:10:03.880Z,0
2016-09-29T04:11:03.579Z,0
2016-09-29T04:12:03.376Z,0
2016-09-29T04:13:03.529Z,0
2016-09-29T04:14:03.862Z,0
2016-09-29T04:15:03.638Z,0
2016-09-29T04:16:03.821Z,0
2016-09-29T04:17:03.703Z,0
2016-09-29T04:18:05.227Z,0
2016-09-29T04:19:03.309Z,0
2016-09-29T04:20:04.314Z,0
2016-09-29T04:21:04.059Z,0
2016-09-29T04:22:04.069Z,0
2016-09-29T04:23:04.274Z,0
2016-09-29T04:24:03.268Z,0
2016-09-29T04:25:05.685Z,0
2016-09-29T04:26:03.689Z,0
2016-09-29T04:27:04.975Z,0
2016-09-29T04:28:05.656Z,0
2016-09-29T04:29:03.997Z,0
2016-09-29T04:30:04.058Z,0
2016-09-29T04:31:03.602Z,0
2016-09-29T04:32:03.424Z,0
2016-09-29T04:33:04.101Z,0
2016-09-29T04:34:03.542Z,0
2016-09-29T04:35:03.862Z,0
2016-09-29T04:36:05.951Z,0
2016-09-29T04:37:04.132Z,0
2016-09-29T04:38:04.345Z,0
2016-09-29T04:39:04.263Z,0
2016-09-29T04:40:05.494Z,0
2016-09-29T04:41:02.504Z,0
2016-09-29T04:42:02.472Z,0
2016-09-29T04:43:04.540Z,0
2016-09-29T04:44:04.567Z,0
2016-09-29T04:45:04.837Z,0
2016-09-29T04:46:05.662Z,0
2016-09-29T04:47:05.399Z,0
2016-09-29T04:48:04.093Z,0
2016-09-29T04:49:05.765Z,0
2016-09-29T04:50:03.489Z,0
2016-09-29T04:51:05.629Z,0
2016-09-29T04:52:03.391Z,0
2016-09-29T04:53:04.381Z,0
2016-09-29T04:54:05.386Z,0
2016-09-29T04:55:04.397Z,0
2016-09-29T04:56:03.545Z,0
2016-09-29T04:57:03.925Z,0
2016-09-29T04:58:04.642Z,0
2016-09-29T04:59:03.544Z,0
2016-09-29T05:00:03.916Z,0
2016-09-29T05:01:04.724Z,0
2016-09-29T05:02:04.019Z,0
2016-09-29T05:03:04.707Z,0
2016-09-29T05:04:05.223Z,0
2016-09-29T05:05:06.234Z,0
2016-09-29T05:06:04.626Z,0
2016-09-29T05:07:04.807Z,0
2016-09-29T05:08:05.975Z,0
2016-09-29T05:09:04.998Z,0
2016-09-29T05:10:04.195Z,0
2016-09-29T05:11:04.593Z,5
2016-09-29T05:12:05.439Z,5
2016-09-29T05:13:03.723Z,5
2016-09-29T05:14:04.208Z,5
2016-09-29T05:15:04.447Z,5
2016-09-29T05:16:05.861Z,5
2016-09-29T05:17:06.917Z,10
2016-09-29T05:18:04.865Z,10
2016-09-29T05:19:04.884Z,10
2016-09-29T05:20:04.542Z,15
2016-09-29T05:21:06.658Z,15
2016-09-29T05:22:04.880Z,15
2016-09-29T05:23:04.401Z,20
2016-09-29T05:24:06.260Z,20
2016-09-29T05:25:06.001Z,25
2016-09-29T05:26:06.493Z,25
2016-09-29T05:27:04.963Z,30
2016-09-29T05:28:06.928Z,35
2016-09-29T05:29:05.599Z,35
2016-09-29T05:30:05.605Z,40
2016-09-29T05:31:06.026Z,45
2016-09-29T05:32:05.534Z,45
2016-09-29T05:33:05.654Z,50
2016-09-29T05:34:04.942Z,55
2016-09-29T05:35:05.383Z,55
2016-09-29T05:36:06.888Z,60
2016-09-29T05:37:04.668Z,60
2016-09-29T05:38:04.987Z,65
2016-09-29T05:39:06.518Z,70
2016-09-29T05:40:05.929Z,75
2016-09-29T05:41:04.240Z,80
2016-09-29T05:42:05.670Z,85
2016-09-29T05:43:05.873Z,90
2016-09-29T05:44:05.643Z,95
2016-09-29T05:45:05.420Z,100
2016-09-29T05:46:04.827Z,110
2016-09-29T05:47:06.418Z,115
2016-09-29T05:48:05.589Z,120
2016-09-29T05:49:07.350Z,125
2016-09-29T05:50:08.430Z,130
2016-09-29T05:51:06.897Z,140
2016-09-29T05:52:06.177Z,145
2016-09-29T05:53:06.272Z,150
2016-09-29T05:54:04.874Z,155
2016-09-29T05:55:06.867Z,160
2016-09-29T05:56:05.576Z,160
2016-09-29T05:57:05.724Z,165
2016-09-29T05:58:06.077Z,165
2016-09-29T05:59:05.861Z,165
2016-09-29T06:00:07.232Z,165
2016-09-29T06:01:06.286Z,165
2016-09-29T06:02:05.962Z,165
2016-09-29T06:03:06.807Z,165
2016-09-29T06:04:05.848Z,170
2016-09-29T06:05:06.838Z,170
2016-09-29T06:06:05.856Z,170
2016-09-29T06:07:06.739Z,170
2016-09-29T06:08:06.381Z,170
2016-09-29T06:09:05.902Z,170
2016-09-29T06:10:06.306Z,170
2016-09-29T06:11:06.177Z,170
2016-09-29T06:12:06.321Z,170
2016-09-29T06:13:06.088Z,170
2016-09-29T06:14:07.062Z,170
2016-09-29T06:15:08.204Z,170
2016-09-29T06:16:05.657Z,175
2016-09-29T06:17:06.658Z,175
2016-09-29T06:18:06.305Z,180
2016-09-29T06:19:06.550Z,185
2016-09-29T06:20:06.343Z,185
2016-09-29T06:21:07.401Z,190
2016-09-29T06:22:06.627Z,195
2016-09-29T06:23:06.662Z,200
2016-09-29T06:24:06.311Z,200
2016-09-29T06:25:06.785Z,205
2016-09-29T06:26:06.877Z,210
2016-09-29T06:27:06.152Z,215
2016-09-29T06:28:06.761Z,220
2016-09-29T06:29:06.361Z,220
2016-09-29T06:30:07.706Z,220
2016-09-29T06:31:07.257Z,220
2016-09-29T06:32:07.324Z,220
2016-09-29T06:33:06.046Z,215
2016-09-29T06:34:07.392Z,210
2016-09-29T06:35:06.342Z,205
2016-09-29T06:36:06.576Z,200
2016-09-29T06:37:06.931Z,200
2016-09-29T06:38:06.379Z,195
2016-09-29T06:39:05.614Z,195
2016-09-29T06:40:06.466Z,200
2016-09-29T06:41:08.170Z,195
2016-09-29T06:42:05.677Z,195
2016-09-29T06:43:07.353Z,195
2016-09-29T06:44:07.191Z,200
2016-09-29T06:45:06.701Z,200
2016-09-29T06:46:07.623Z,200
2016-09-29T06:47:06.330Z,205
2016-09-29T06:48:06.955Z,205
2016-09-29T06:49:07.604Z,210
2016-09-29T06:50:08.044Z,215
2016-09-29T06:51:08.166Z,225
2016-09-29T06:52:06.108Z,230
2016-09-29T06:53:06.057Z,240
2016-09-29T06:54:07.673Z,250
2016-09-29T06:55:06.370Z,260
2016-09-29T06:56:07.248Z,270
2016-09-29T06:57:06.276Z,280
2016-09-29T06:58:06.053Z,300
2016-09-29T06:59:07.204Z,310
2016-09-29T07:00:07.328Z,320
2016-09-29T07:01:06.766Z,335
2016-09-29T07:02:07.229Z,340
2016-09-29T07:03:07.005Z,330
2016-09-29T07:04:07.555Z,315
2016-09-29T07:05:07.015Z,320
2016-09-29T07:06:08.806Z,320
2016-09-29T07:07:07.610Z,310
2016-09-29T07:08:07.860Z,315
2016-09-29T07:09:08.159Z,315
2016-09-29T07:10:07.067Z,340
2016-09-29T07:11:06.927Z,340
2016-09-29T07:12:07.085Z,360
2016-09-29T07:13:06.946Z,375
2016-09-29T07:14:07.917Z,395
2016-09-29T07:15:07.370Z,415
2016-09-29T07:16:07.237Z,425
2016-09-29T07:17:08.076Z,435
2016-09-29T07:18:07.208Z,440
2016-09-29T07:19:08.078Z,450
2016-09-29T07:20:07.405Z,460
2016-09-29T07:21:08.816Z,475
2016-09-29T07:22:07.841Z,470
2016-09-29T07:23:07.626Z,475
2016-09-29T07:24:08.635Z,485
2016-09-29T07:25:07.323Z,480
2016-09-29T07:26:09.351Z,485
2016-09-29T07:27:08.378Z,495
2016-09-29T07:28:07.674Z,495
2016-09-29T07:29:07.770Z,495
2016-09-29T07:30:08.878Z,500
2016-09-29T07:31:08.153Z,515
2016-09-29T07:32:08.556Z,525
2016-09-29T07:33:08.396Z,545
2016-09-29T07:34:08.405Z,575
2016-09-29T07:35:07.904Z,575
2016-09-29T07:36:08.161Z,570
2016-09-29T07:37:07.441Z,560
2016-09-29T07:38:09.404Z,565
2016-09-29T07:39:08.858Z,560
2016-09-29T07:40:08.588Z,580
2016-09-29T07:41:08.574Z,580
2016-09-29T07:42:07.776Z,575
2016-09-29T07:43:07.754Z,575
2016-09-29T07:44:06.922Z,580
2016-09-29T07:45:09.005Z,590
2016-09-29T07:46:08.664Z,595
2016-09-29T07:47:07.886Z,595
2016-09-29T07:48:09.543Z,595
2016-09-29T07:49:07.665Z,595
2016-09-29T07:50:07.244Z,585
2016-09-29T07:51:08.009Z,585
2016-09-29T07:52:07.806Z,590
2016-09-29T07:53:09.262Z,595
2016-09-29T07:54:10.685Z,600
2016-09-29T07:55:08.292Z,610
2016-09-29T07:56:08.936Z,610
2016-09-29T07:57:08.747Z,610
2016-09-29T07:58:08.739Z,615
2016-09-29T07:59:09.080Z,615
2016-09-29T08:00:08.447Z,620
2016-09-29T08:01:09.184Z,615
2016-09-29T08:02:09.031Z,615
2016-09-29T08:03:09.027Z,620
2016-09-29T08:04:10.791Z,625
2016-09-29T08:05:10.038Z,630
2016-09-29T08:06:09.731Z,650
2016-09-29T08:07:08.463Z,665
2016-09-29T08:08:08.254Z,660
2016-09-29T08:09:09.511Z,655
2016-09-29T08:10:08.668Z,655
2016-09-29T08:11:08.331Z,650
2016-09-29T08:12:09.469Z,650
2016-09-29T08:13:08.417Z,645
2016-09-29T08:14:08.649Z,655
2016-09-29T08:15:08.989Z,660
2016-09-29T08:16:09.047Z,670
2016-09-29T08:17:08.418Z,690
2016-09-29T08:18:08.397Z,710
2016-09-29T08:19:08.545Z,720
2016-09-29T08:20:09.539Z,715
2016-09-29T08:21:08.931Z,705
2016-09-29T08:22:09.063Z,695
2016-09-29T08:23:09.714Z,685
2016-09-29T08:24:08.723Z,670
2016-09-29T08:25:09.584Z,655
2016-09-29T08:26:08.209Z,635
2016-09-29T08:27:08.533Z,615
2016-09-29T08:28:09.836Z,595
2016-09-29T08:29:09.047Z,585
2016-09-29T08:30:08.909Z,570
2016-09-29T08:31:09.954Z,565
2016-09-29T08:32:09.269Z,560
2016-09-29T08:33:09.136Z,570
2016-09-29T08:34:08.846Z,580
2016-09-29T08:35:08.408Z,590
2016-09-29T08:36:09.990Z,615
2016-09-29T08:37:08.708Z,650
2016-09-29T08:38:09.153Z,665
2016-09-29T08:39:11.045Z,680
2016-09-29T08:40:09.365Z,715
2016-09-29T08:41:10.117Z,745
2016-09-29T08:42:09.373Z,745
2016-09-29T08:43:10.044Z,735
2016-09-29T08:44:09.829Z,695
2016-09-29T08:45:10.015Z,710
2016-09-29T08:46:11.182Z,705
2016-09-29T08:47:10.239Z,730
2016-09-29T08:48:10.020Z,750
2016-09-29T08:49:09.513Z,780
2016-09-29T08:50:10.153Z,810
2016-09-29T08:51:09.201Z,835
2016-09-29T08:52:10.688Z,860
2016-09-29T08:53:10.713Z,870
2016-09-29T08:54:08.676Z,860
2016-09-29T08:55:09.959Z,855
2016-09-29T08:56:11.099Z,875
2016-09-29T08:57:09.589Z,885
2016-09-29T08:58:11.165Z,910
2016-09-29T08:59:10.779Z,925
2016-09-29T09:00:10.570Z,950
2016-09-29T09:01:09.701Z,965
2016-09-29T09:02:09.274Z,960
2016-09-29T09:03:10.884Z,950
2016-09-29T09:04:10.556Z,950
2016-09-29T09:05:09.902Z,925
2016-09-29T09:06:10.060Z,900
2016-09-29T09:07:10.947Z,900
2016-09-29T09:08:09.713Z,910
2016-09-29T09:09:10.609Z,905
2016-09-29T09:10:09.484Z,895
2016-09-29T09:11:09.085Z,895
2016-09-29T09:12:10.885Z,895
2016-09-29T09:13:11.061Z,885
2016-09-29T09:14:10.899Z,880
2016-09-29T09:15:09.106Z,875
2016-09-29T09:16:09.847Z,865
2016-09-29T09:17:09.732Z,825
2016-09-29T09:18:10.134Z,800
2016-09-29T09:19:10.992Z,790
2016-09-29T09:20:09.540Z,765
2016-09-29T09:21:09.777Z,765
2016-09-29T09:22:10.985Z,785
2016-09-29T09:23:10.521Z,815
2016-09-29T09:24:10.975Z,850
2016-09-29T09:25:10.827Z,855
2016-09-29T09:26:11.435Z,845
2016-09-29T09:27:11.626Z,865
2016-09-29T09:28:10.690Z,870
2016-09-29T09:29:11.690Z,880
2016-09-29T09:30:11.358Z,870
2016-09-29T09:31:11.253Z,880
2016-09-29T09:32:10.849Z,860
2016-09-29T09:33:11.288Z,830
2016-09-29T09:34:11.800Z,800
2016-09-29T09:35:11.130Z,770
2016-09-29T09:36:10.784Z,740
2016-09-29T09:37:12.022Z,680
2016-09-29T09:38:10.691Z,645
2016-09-29T09:39:09.901Z,680
2016-09-29T09:40:10.797Z,690
2016-09-29T09:41:12.163Z,640
2016-09-29T09:42:11.031Z,640
2016-09-29T09:43:11.044Z,660
2016-09-29T09:44:11.059Z,685
2016-09-29T09:45:11.123Z,660
2016-09-29T09:46:11.097Z,680
2016-09-29T09:47:11.241Z,715
2016-09-29T09:48:11.680Z,715
2016-09-29T09:49:10.994Z,730
2016-09-29T09:50:12.065Z,740
2016-09-29T09:51:12.787Z,760
2016-09-29T09:52:12.267Z,725
2016-09-29T09:53:12.003Z,745
2016-09-29T09:54:11.270Z,735
2016-09-29T09:55:13.426Z,740
2016-09-29T09:56:12.005Z,795
2016-09-29T09:57:12.189Z,810
2016-09-29T09:58:11.510Z,815
2016-09-29T09:59:11.074Z,785
2016-09-29T10:00:13.074Z,815
2016-09-29T10:01:11.103Z,805
2016-09-29T10:02:11.327Z,805
2016-09-29T10:03:11.548Z,750
2016-09-29T10:04:11.014Z,780
2016-09-29T10:05:10.802Z,790
2016-09-29T10:06:11.411Z,795
2016-09-29T10:07:13.104Z,795
2016-09-29T10:08:11.968Z,805
2016-09-29T10:09:13.071Z,760
2016-09-29T10:10:12.058Z,810
2016-09-29T10:11:13.365Z,790
2016-09-29T10:12:11.768Z,790
2016-09-29T10:13:12.081Z,730
2016-09-29T10:14:11.657Z,725
2016-09-29T10:15:12.327Z,775
2016-09-29T10:16:12.302Z,730
2016-09-29T10:17:12.909Z,695
2016-09-29T10:18:11.846Z,655
2016-09-29T10:19:10.817Z,615
2016-09-29T10:20:12.273Z,625
2016-09-29T10:21:11.749Z,690
2016-09-29T10:22:11.277Z,720
2016-09-29T10:23:14.060Z,720
2016-09-29T10:24:12.876Z,730
2016-09-29T10:25:12.300Z,735
2016-09-29T10:26:11.608Z,745
2016-09-29T10:27:11.798Z,760
2016-09-29T10:28:12.059Z,680
2016-09-29T10:29:12.055Z,735
2016-09-29T10:30:13.629Z,750
2016-09-29T10:31:14.279Z,770
2016-09-29T10:32:12.630Z,775
2016-09-29T10:33:12.625Z,750
2016-09-29T10:34:12.002Z,745
2016-09-29T10:35:11.713Z,690
2016-09-29T10:36:12.179Z,795
2016-09-29T10:37:14.146Z,825
2016-09-29T10:38:11.884Z,820
2016-09-29T10:39:12.178Z,805
2016-09-29T10:40:13.973Z,805
2016-09-29T10:41:12.834Z,805
2016-09-29T10:42:11.876Z,800
2016-09-29T10:43:12.409Z,815
2016-09-29T10:44:12.018Z,805
2016-09-29T10:45:12.686Z,810
2016-09-29T10:46:12.091Z,820
2016-09-29T10:47:12.339Z,810
2016-09-29T10:48:13.120Z,815
2016-09-29T10:49:13.441Z,835
2016-09-29T10:50:13.171Z,815
2016-09-29T10:51:13.061Z,830
2016-09-29T10:52:13.484Z,825
2016-09-29T10:53:12.956Z,785
2016-09-29T10:54:13.702Z,795
2016-09-29T10:55:13.575Z,805
2016-09-29T10:56:12.550Z,805
2016-09-29T10:57:13.439Z,785
2016-09-29T10:58:12.384Z,790
2016-09-29T10:59:13.644Z,780
2016-09-29T11:00:15.536Z,750
2016-09-29T11:01:14.603Z,725
2016-09-29T11:02:13.316Z,695
2016-09-29T11:03:13.234Z,605
2016-09-29T11:04:14.569Z,630
2016-09-29T11:05:13.954Z,585
2016-09-29T11:06:15.460Z,570
2016-09-29T11:07:13.232Z,575
2016-09-29T11:08:13.331Z,615
2016-09-29T11:09:14.586Z,540
2016-09-29T11:10:14.183Z,505
2016-09-29T11:11:14.396Z,590
2016-09-29T11:12:14.233Z,545
2016-09-29T11:13:13.314Z,525
2016-09-29T11:14:14.441Z,470
2016-09-29T11:15:14.702Z,590
2016-09-29T11:16:14.852Z,505
2016-09-29T11:17:13.745Z,510
2016-09-29T11:18:15.465Z,485
2016-09-29T11:19:13.684Z,465
2016-09-29T11:20:14.221Z,575
2016-09-29T11:21:13.715Z,485
2016-09-29T11:22:13.795Z,570
2016-09-29T11:23:13.775Z,560
2016-09-29T11:24:13.932Z,570
2016-09-29T11:25:13.925Z,545
2016-09-29T11:26:13.736Z,535
2016-09-29T11:27:14.603Z,520
2016-09-29T11:28:13.872Z,500
2016-09-29T11:29:14.484Z,460
2016-09-29T11:30:14.669Z,490
2016-09-29T11:31:14.102Z,500
2016-09-29T11:32:14.277Z,485
2016-09-29T11:33:15.535Z,480
2016-09-29T11:34:13.873Z,500
2016-09-29T11:35:15.621Z,500
2016-09-29T11:36:14.596Z,500
2016-09-29T11:37:15.745Z,500
2016-09-29T11:38:14.884Z,500
2016-09-29T11:39:15.174Z,505
2016-09-29T11:40:15.043Z,505
2016-09-29T11:41:14.971Z,505
2016-09-29T11:42:13.912Z,500
2016-09-29T11:43:14.024Z,500
2016-09-29T11:44:14.729Z,505
2016-09-29T11:45:14.353Z,470
2016-09-29T11:46:14.704Z,500
2016-09-29T11:47:14.532Z,520
2016-09-29T11:48:15.211Z,545
2016-09-29T11:49:14.836Z,550
2016-09-29T11:50:15.110Z,555
2016-09-29T11:51:14.081Z,555
2016-09-29T11:52:14.837Z,545
2016-09-29T11:53:14.322Z,535
2016-09-29T11:54:16.318Z,530
2016-09-29T11:55:13.776Z,520
2016-09-29T11:56:14.004Z,515
2016-09-29T11:57:16.049Z,505
2016-09-29T11:58:16.017Z,500
2016-09-29T11:59:14.009Z,500
2016-09-29T12:00:15.516Z,500
2016-09-29T12:01:14.469Z,500
2016-09-29T12:02:17.318Z,500
2016-09-29T12:03:15.098Z,505
2016-09-29T12:04:14.796Z,505
2016-09-29T12:05:14.385Z,505
2016-09-29T12:06:14.740Z,510
2016-09-29T12:07:14.931Z,505
2016-09-29T12:08:16.195Z,500
2016-09-29T12:09:14.744Z,510
2016-09-29T12:10:15.131Z,520
2016-09-29T12:11:16.794Z,520
2016-09-29T12:12:15.878Z,510
2016-09-29T12:13:17.719Z,510
2016-09-29T12:14:15.004Z,510
2016-09-29T12:15:14.643Z,505
2016-09-29T12:16:16.815Z,505
2016-09-29T12:17:15.913Z,500
2016-09-29T12:18:15.603Z,505
2016-09-29T12:19:16.389Z,505
2016-09-29T12:20:16.069Z,505
2016-09-29T12:21:16.755Z,505
2016-09-29T12:22:15.600Z,515
2016-09-29T12:23:17.181Z,525
2016-09-29T12:24:16.326Z,535
2016-09-29T12:25:16.114Z,555
2016-09-29T12:26:16.320Z,565
2016-09-29T12:27:16.310Z,565
2016-09-29T12:28:15.501Z,550
2016-09-29T12:29:15.569Z,625
2016-09-29T12:30:17.398Z,690
2016-09-29T12:31:16.500Z,725
2016-09-29T12:32:15.428Z,740
2016-09-29T12:33:16.081Z,730
2016-09-29T12:34:17.971Z,695
2016-09-29T12:35:16.634Z,635
2016-09-29T12:36:16.382Z,595
2016-09-29T12:37:15.906Z,590
2016-09-29T12:38:15.901Z,590
2016-09-29T12:39:17.485Z,560
2016-09-29T12:40:16.042Z,515
2016-09-29T12:41:17.179Z,545
2016-09-29T12:42:17.323Z,630
2016-09-29T12:43:16.680Z,600
2016-09-29T12:44:16.940Z,570
2016-09-29T12:45:15.929Z,475
2016-09-29T12:46:16.504Z,410
2016-09-29T12:47:16.443Z,375
2016-09-29T12:48:17.325Z,370
2016-09-29T12:49:16.699Z,385
2016-09-29T12:50:17.534Z,410
2016-09-29T12:51:16.147Z,430
2016-09-29T12:52:16.479Z,475
2016-09-29T12:53:16.395Z,515
2016-09-29T12:54:16.322Z,550
2016-09-29T12:55:16.822Z,550
2016-09-29T12:56:16.510Z,535
2016-09-29T12:57:17.261Z,530
2016-09-29T12:58:17.548Z,515
2016-09-29T12:59:16.994Z,505
2016-09-29T13:00:17.036Z,515
2016-09-29T13:01:17.000Z,570
2016-09-29T13:02:18.736Z,570
2016-09-29T13:03:18.060Z,615
2016-09-29T13:04:17.986Z,625
2016-09-29T13:05:17.777Z,615
2016-09-29T13:06:17.303Z,595
2016-09-29T13:07:18.897Z,560
2016-09-29T13:08:17.361Z,540
2016-09-29T13:09:16.826Z,520
2016-09-29T13:10:16.737Z,500
2016-09-29T13:11:19.253Z,485
2016-09-29T13:12:16.975Z,490
2016-09-29T13:13:16.440Z,495
2016-09-29T13:14:17.343Z,515
2016-09-29T13:15:17.476Z,525
2016-09-29T13:16:18.062Z,500
2016-09-29T13:17:18.765Z,545
2016-09-29T13:18:17.931Z,540
2016-09-29T13:19:17.746Z,555
2016-09-29T13:20:19.053Z,580
2016-09-29T13:21:18.596Z,595
2016-09-29T13:22:17.225Z,600
2016-09-29T13:23:17.181Z,600
2016-09-29T13:24:17.274Z,560
2016-09-29T13:25:18.759Z,460
2016-09-29T13:26:19.284Z,465
2016-09-29T13:27:18.631Z,460
2016-09-29T13:28:18.125Z,480
2016-09-29T13:29:18.018Z,415
2016-09-29T13:30:18.522Z,385
2016-09-29T13:31:18.569Z,390
2016-09-29T13:32:17.999Z,380
2016-09-29T13:33:18.157Z,445
2016-09-29T13:34:17.007Z,450
2016-09-29T13:35:19.133Z,430
2016-09-29T13:36:18.192Z,540
2016-09-29T13:37:19.690Z,580
2016-09-29T13:38:19.076Z,570
2016-09-29T13:39:18.148Z,575
2016-09-29T13:40:17.836Z,585
2016-09-29T13:41:19.172Z,540
2016-09-29T13:42:18.868Z,505
2016-09-29T13:43:18.664Z,525
2016-09-29T13:44:17.857Z,515
2016-09-29T13:45:19.610Z,525
2016-09-29T13:46:18.193Z,530
2016-09-29T13:47:19.541Z,545
2016-09-29T13:48:18.519Z,550
2016-09-29T13:49:18.859Z,560
2016-09-29T13:50:17.831Z,565
2016-09-29T13:51:17.920Z,560
2016-09-29T13:52:19.155Z,560
2016-09-29T13:53:18.038Z,555
2016-09-29T13:54:19.227Z,545
2016-09-29T13:55:17.909Z,560
2016-09-29T13:56:17.625Z,570
2016-09-29T13:57:19.967Z,585
2016-09-29T13:58:21.769Z,595
2016-09-29T13:59:19.895Z,600
2016-09-29T14:00:19.613Z,575
2016-09-29T14:01:19.767Z,570
2016-09-29T14:02:19.264Z,635
2016-09-29T14:03:19.854Z,555
2016-09-29T14:04:20.192Z,585
2016-09-29T14:05:18.855Z,630
2016-09-29T14:06:19.293Z,610
2016-09-29T14:07:21.669Z,620
2016-09-29T14:08:20.311Z,620
2016-09-29T14:09:19.968Z,595